Island Park, ID (83429)

10:10 PM MDT on September 26, 2016 (GMT -0600)
Yale Creek Cabin | | Change Station

Elev 6470 ft 44.48 °N, 111.44 °W | Updated 4 minutes ago

Clear
Clear
42.3 °F
Feels Like 42 °F
N
0.0
Wind Variable Wind from SW

Today
High -- | Low -- °F
--% Chance of Precip.
Yesterday
High -- | Low -- °F
Precip. -- in
Pressure 30.39 in
Visibility 10.0 miles
Clouds
Windchill 42 °F
Dew Point 38 °F
Humidity 85%
Rainfall 0.00 in
Snow Depth Not available.
7:17 AM 7:14 PM
Waning Crescent, 14% visible
METAR KWYS 270355Z AUTO 19006KT 10SM 11/04 A3039 RMK AO2
Pressure 30.39 in
Visibility 10.0 miles
Clouds
Windchill 42 °F
Dew Point 38 °F
Humidity 85%
Rainfall 0.00 in
Snow Depth Not available.
7:17 AM 7:14 PM
Waning Crescent, 14% visible
METAR KWYS 270355Z AUTO 19006KT 10SM 11/04 A3039 RMK AO2

10-Day Weather Forecast

Almanac

Astronomy

Sep. 26, 2016 Rise Set
Actual Time
Civil Twilight
Nautical Twilight
Astronomical Twilight
Moon
Length of Visible Light
Length of Day
Tomorrow will be .
, % of the Moon is Illuminated

Today's Extremes

State Highs State Lows

Community

WunderPhotos

Upload Photos

1,942,032 photos uploaded!

WunderBlog® & News

Nearby

Air Quality

  Air Quality AQ Index Pollutant
Not available.

Snow Depth

Station Depth Elevation

Earthquake Activity

City Distance Mag. Time & Date
Minimum magnitude displayed is 2.5.

Coastal Water Temperatures

Place Temperature

Stations

Nearby Weather Stations

Station Location Temp. Windchill Dew Point Humidity Wind Precip. Elev Updated Type
                   

Watches & Warnings

There are currently no watches in effect.